Portada
METAR-TAF:

METAR-TAF

Aeropuertos :

Aeropuerto Internacional de Irkutsk

Irkutsk, Rusia

latitud: 52-16N, longitud: 104-19E, altitud: 513 m

Observación

El informe se hizo hace 10 minutos, a las 08:30 UTC
Viento 21 kt del noroeste con ráfagas de 31 kt
Temperatura 9°C
Humedad 27%
Presión 1014 hPa
Visibilidad 10 km o más
Nubes dispersas a una altura de 5000 ft, Cumulonimbus.

METAR: UIII 130830Z 31011G16MPS 9999 SCT050CB 09/M09 Q1014 R30/CLRD60 NOSIG RMK QFE716/0955

Hora: 16:40 (08:40 UTC)

Pronóstico

El informe se hizo hace 40 minutos, a las 08:00 UTC
Pronóstico válido del 13 a las 09 UTC al 14 a las 09 UTC
Viento 16 kt del oeste-noroeste con ráfagas de 29 kt
Visibilidad 10 km o más
Nubes dispersas a una altura de 5000 ft, Cumulonimbus.
Evolucionando progresivamente
del 13 a las 12 UTC al 13 a las 14 UTC
Viento 6 kt del oeste

TAF: UIII 130800Z 1309/1409 30008G15MPS 9999 SCT050CB BECMG 1312/1314 28003MPS

Observaciones y pronósticos meteorológicos de más de 4000 aeropuertos (mensajes METAR y TAF).

Los puntos amarillos y rojos representan las estaciones disponibles.

Ponga el ratón en el punto deseado para ver el nombre de la estación.

Haga clic para ver las observaciones y los pronósticos meteorológicos.

Para cambiar el mapa : haga clic en los botones verdes con una cruz de color negro para hacer un zoom, en el botón verde con un guión para alejar o en las flechas verdes para mapas adyacentes.


METAR-TAF: